• Join FlightAware (Why Join?)
  • Login
  • US Flag GB Flag 
08:11 EDT


 

Airport Tracker/Info


-or-


 

Live Flight TrackerFlight Track Log ✈ N6045S ✈ 07-May-2013 ✈ KSYR - KDXR

Flight Track Log - Related Links

Times and Time Zones

All times are in EDT time to prevent confusion due to time zone crossing. See the N6045S flight status page for this flight to view local times or setup timezone preferences in your user account.

Time Position Orientation Groundspeed Altitude Reporting Facility
EDT Latitude Longitude Course Direction KTS MPH feet Rate Location/Type
18:44 43.1047 -76.0947 133° Southeast 125 144 1,000  Level Boston Center
18:45 43.0808 -76.0592 133° Southeast 148 170 2,500 1,740 Climbing Boston Center
18:47 43.0272 -75.9736 131° Southeast 155 178 5,900 1,740 Climbing Boston Center
18:48 42.9992 -75.9294 131° Southeast 155 178 7,700 1,680 Climbing Boston Center
18:49 42.9694 -75.8822 131° Southeast 160 184 9,300 1,500 Climbing Boston Center
18:50 42.9394 -75.8381 133° Southeast 160 184 10,800 1,380 Climbing Boston Center
18:51 42.9078 -75.7881 131° Southeast 166 191 12,100 1,260 Climbing Boston Center
18:52 42.8756 -75.7411 133° Southeast 171 197 13,400 1,260 Climbing Boston Center
18:53 42.8458 -75.6914 129° Southeast 171 197 14,700 1,200 Climbing Boston Center
18:54 42.8139 -75.6442 133° Southeast 171 197 15,900 1,140 Climbing Boston Center
18:55 42.7858 -75.5975 129° Southeast 166 191 17,000 780 Climbing Boston Center
18:56 42.7539 -75.5506 133° Southeast 166 191 17,500 240 Climbing Boston Center
18:57 42.7158 -75.4922 132° Southeast 185 213 17,500  Level Boston Center
18:58 42.6717 -75.4250 132° Southeast 210 242 17,500  Level Boston Center
18:59 42.6275 -75.3581 132° Southeast 228 262 17,500  Level Boston Center
19:00 42.5817 -75.2853 131° Southeast 233 268 17,500  Level Boston Center
19:01 42.5372 -75.2186 132° Southeast 239 275 17,500  Level Boston Center
19:02 42.4931 -75.1489 131° Southeast 244 281 17,500  Level Boston Center
19:03 42.4467 -75.0822 133° Southeast 244 281 17,500  Level Boston Center
19:04 42.4006 -75.0100 131° Southeast 244 281 17,500  Level Boston Center
19:05 42.3561 -74.9436 132° Southeast 244 281 17,500 -60 Level Boston Center
19:06 42.3097 -74.8714 131° Southeast 244 281 17,400 -60 Descending Boston Center
19:07 42.2653 -74.8025 131° Southeast 249 287 17,400  Level Boston Center
19:08 42.2189 -74.7361 133° Southeast 249 287 17,400  Level Boston Center
19:09 42.1722 -74.6672 132° Southeast 249 287 17,400  Level Boston Center
19:10 42.1278 -74.5983 131° Southeast 249 287 17,400  Level Boston Center
19:11 42.0811 -74.5297 132° Southeast 249 287 17,400  Level Boston Center
19:12 42.0344 -74.4583 131° Southeast 249 287 17,500  Climbing Boston Center
19:13 41.9836 -74.3839 133° Southeast 249 287 17,500  Level Boston Center
19:14 41.9431 -74.3214 131° Southeast 249 287 17,500 -300 Level Boston Center
19:15 41.8919 -74.2444 132° Southeast 249 287 17,000 -840 Descending Boston Center
19:16 41.8472 -74.1792 133° Southeast 254 292 15,900 -1,140 Descending Boston Center
19:17 41.8003 -74.1111 133° Southeast 249 287 14,800 -1,500 Descending Boston Center
19:18 41.7494 -74.0344 132° Southeast 249 287 13,000 -1,560 Descending Boston Center
19:19 41.7044 -73.9694 133° Southeast 249 287 11,700 -1,380 Descending Boston Center
19:20 41.6533 -73.8958 133° Southeast 249 287 10,300 -1,440 Descending Boston Center
19:21 41.6083 -73.8283 132° Southeast 249 287 8,900 -1,320 Descending Boston Center
19:22 41.5667 -73.7667 132° Southeast 241 277 7,800 -1,320 Descending New York TRACON
19:23 41.5167 -73.7000 135° Southeast 236 272 6,400 -1,380 Descending New York TRACON
19:24 41.4833 -73.6333 124° Southeast 229 264 5,100 -1,260 Descending New York TRACON
19:25 41.4333 -73.6000 153° Southeast 200 230 3,900 -1,080 Descending New York TRACON
19:26 41.3833 -73.5833 166° South 184 212 3,000 -900 Descending New York TRACON
19:27 41.3500 -73.5500 143° Southeast 135 155 2,300 -960 Descending New York TRACON
19:28 41.3667 -73.5167 56° Northeast 111 128 1,200 -1,140 Descending New York TRACON
19:30 41.3715 -73.4822 114° Southeast  Level Estimated
19:37 41.3715 -73.4822 114° Southeast  Level Estimated